createdAt,value
2022-10-19T00:02:44.583Z,74.60
2022-10-19T00:06:32.627Z,74.80
2022-10-19T00:10:14.896Z,74.70
2022-10-19T00:13:58.520Z,75.10
2022-10-19T00:17:40.783Z,74.80
2022-10-19T00:21:22.943Z,75.30
2022-10-19T00:25:06.087Z,75.10
2022-10-19T00:28:56.179Z,74.80
2022-10-19T00:32:38.399Z,75.00
2022-10-19T00:36:25.379Z,76.20
2022-10-19T00:40:08.825Z,75.10
2022-10-19T00:44:07.191Z,75.10
2022-10-19T00:47:50.724Z,75.50
2022-10-19T00:51:34.905Z,75.20
2022-10-19T00:55:17.476Z,76.20
2022-10-19T00:58:59.837Z,75.80
2022-10-19T01:02:41.907Z,75.40
2022-10-19T01:06:25.414Z,75.50
2022-10-19T01:10:08.140Z,75.20
2022-10-19T01:14:21.179Z,76.20
2022-10-19T01:18:16.206Z,76.30
2022-10-19T01:22:13.295Z,75.90
2022-10-19T01:26:04.674Z,76.20
2022-10-19T01:30:08.373Z,75.90
2022-10-19T01:34:27.287Z,75.90
2022-10-19T01:38:21.976Z,76.60
2022-10-19T01:42:15.948Z,76.90
2022-10-19T01:46:28.468Z,76.80
2022-10-19T01:50:48.784Z,76.60
2022-10-19T01:54:38.706Z,77.20
2022-10-19T01:58:30.954Z,76.00
2022-10-19T02:02:15.168Z,76.30
2022-10-19T02:05:58.592Z,76.80
2022-10-19T02:09:41.016Z,75.70
2022-10-19T02:13:24.859Z,76.10
2022-10-19T02:17:11.737Z,76.00
2022-10-19T02:20:54.179Z,76.10
2022-10-19T02:24:36.455Z,76.90
2022-10-19T02:28:18.831Z,76.70
2022-10-19T02:32:02.131Z,77.00
2022-10-19T02:35:44.550Z,80.10
2022-10-19T02:39:26.919Z,82.50
2022-10-19T02:43:14.782Z,80.10
2022-10-19T02:47:14.883Z,80.60
2022-10-19T02:50:56.914Z,79.80
2022-10-19T02:54:40.799Z,80.80
2022-10-19T02:58:22.938Z,79.70
2022-10-19T03:02:05.037Z,80.20
2022-10-19T03:05:47.079Z,81.70
2022-10-19T03:09:29.388Z,80.20
2022-10-19T03:13:11.694Z,80.60
2022-10-19T03:16:53.874Z,80.40
2022-10-19T03:20:35.901Z,80.60
2022-10-19T03:24:18.244Z,81.90
2022-10-19T03:28:03.264Z,82.50
2022-10-19T03:31:45.543Z,80.90
2022-10-19T03:35:27.542Z,81.80
2022-10-19T03:39:14.163Z,80.50
2022-10-19T03:42:56.304Z,80.40
2022-10-19T03:46:38.886Z,80.30
2022-10-19T03:50:21.503Z,80.40
2022-10-19T03:54:14.939Z,80.80
2022-10-19T03:57:58.315Z,80.60
2022-10-19T04:01:43.495Z,80.30
2022-10-19T04:05:29.539Z,80.10
2022-10-19T04:09:18.125Z,80.40
2022-10-19T04:13:00.587Z,80.60
2022-10-19T04:16:43.025Z,80.20
2022-10-19T04:20:25.224Z,80.10
2022-10-19T04:24:15.877Z,80.10
2022-10-19T04:27:57.982Z,80.10
2022-10-19T04:31:40.661Z,80.30
2022-10-19T04:35:22.760Z,80.00
2022-10-19T04:39:05.689Z,80.30
2022-10-19T04:42:47.734Z,80.00
2022-10-19T04:46:30.875Z,80.70
2022-10-19T04:50:15.955Z,79.90
2022-10-19T04:53:59.765Z,79.70
2022-10-19T04:57:42.400Z,79.80
2022-10-19T05:01:29.362Z,79.80
2022-10-19T05:05:12.553Z,79.60
2022-10-19T05:08:55.462Z,79.50
2022-10-19T05:12:37.854Z,79.70
2022-10-19T05:16:22.846Z,79.40
2022-10-19T05:20:05.336Z,79.50
2022-10-19T05:23:47.759Z,79.50
2022-10-19T05:27:30.179Z,79.70
2022-10-19T05:31:17.887Z,79.60
2022-10-19T05:35:00.123Z,80.00
2022-10-19T05:38:43.323Z,79.80
2022-10-19T05:42:25.385Z,80.00
2022-10-19T05:46:10.531Z,79.90
2022-10-19T05:49:52.814Z,79.80
2022-10-19T05:53:35.782Z,80.00
2022-10-19T05:57:18.008Z,79.80
2022-10-19T06:01:01.025Z,79.90
2022-10-19T06:04:43.202Z,79.80
2022-10-19T06:08:43.540Z,79.90
2022-10-19T06:12:25.765Z,80.10
2022-10-19T06:16:09.500Z,80.00
2022-10-19T06:19:51.580Z,79.70
2022-10-19T06:35:54.607Z,80.80
2022-10-19T06:39:36.574Z,80.90
2022-10-19T06:43:18.641Z,80.50
2022-10-19T06:47:00.846Z,80.30
2022-10-19T06:50:42.868Z,80.10
2022-10-19T06:54:25.828Z,80.20
2022-10-19T06:58:07.879Z,79.90
2022-10-19T07:01:49.926Z,80.00
2022-10-19T07:05:31.977Z,80.10
2022-10-19T07:09:14.080Z,80.00
2022-10-19T07:12:56.903Z,80.10
2022-10-19T07:16:39.084Z,80.00
2022-10-19T07:20:21.462Z,80.00
2022-10-19T07:24:03.820Z,80.20
2022-10-19T07:27:45.911Z,80.10
2022-10-19T07:31:30.250Z,80.40
2022-10-19T07:35:12.340Z,80.20
2022-10-19T07:38:54.925Z,80.80
2022-10-19T07:42:37.900Z,80.50
2022-10-19T07:46:26.430Z,80.30
2022-10-19T07:50:08.832Z,80.30
2022-10-19T07:53:51.235Z,80.30
2022-10-19T07:57:33.647Z,80.30
2022-10-19T08:01:21.709Z,80.30
2022-10-19T08:05:07.745Z,80.10
2022-10-19T08:08:54.005Z,80.10
2022-10-19T08:12:38.657Z,79.80
2022-10-19T08:16:40.689Z,79.70
2022-10-19T08:20:23.015Z,79.80
2022-10-19T08:24:20.309Z,79.60
2022-10-19T08:28:02.570Z,79.60
2022-10-19T08:31:46.441Z,79.90
2022-10-19T08:35:29.761Z,79.70
2022-10-19T08:39:13.073Z,78.80
2022-10-19T08:43:18.690Z,78.70
2022-10-19T09:07:46.368Z,76.60
2022-10-19T09:11:35.716Z,76.60
2022-10-19T09:15:48.117Z,77.50
2022-10-19T09:19:32.254Z,76.00
2022-10-19T09:23:40.060Z,77.00
2022-10-19T09:27:26.491Z,72.60
2022-10-19T09:31:19.638Z,75.00
2022-10-19T09:35:20.188Z,69.70
2022-10-19T09:39:03.458Z,76.60
2022-10-19T09:51:55.679Z,70.20
2022-10-19T09:55:46.185Z,70.90
2022-10-19T09:59:36.369Z,71.70
2022-10-19T10:03:24.744Z,61.50
2022-10-19T10:07:16.223Z,58.40
2022-10-19T10:11:14.507Z,62.50
2022-10-19T10:14:56.918Z,63.10
2022-10-19T10:18:49.836Z,60.20
2022-10-19T10:22:35.227Z,61.60
2022-10-19T10:26:20.370Z,63.10
2022-10-19T10:30:18.549Z,63.90
2022-10-19T10:34:16.348Z,65.80
2022-10-19T10:38:28.906Z,65.70
2022-10-19T10:42:18.301Z,62.40
2022-10-19T10:46:29.858Z,62.80
2022-10-19T10:50:39.182Z,59.00
2022-10-19T10:54:24.060Z,58.90
2022-10-19T10:58:35.167Z,60.60
2022-10-19T11:02:41.821Z,56.90
2022-10-19T11:06:26.075Z,56.70
2022-10-19T11:10:22.635Z,58.80
2022-10-19T11:14:31.871Z,58.00
2022-10-19T11:18:25.501Z,56.10
2022-10-19T11:22:28.788Z,57.00
2022-10-19T11:26:16.037Z,59.00
2022-10-19T11:30:25.587Z,60.20
2022-10-19T11:34:52.497Z,60.10
2022-10-19T11:38:40.313Z,59.00
2022-10-19T11:42:28.496Z,59.80
2022-10-19T11:46:43.860Z,59.80
2022-10-19T11:50:53.873Z,59.80
2022-10-19T11:54:45.605Z,60.60
2022-10-19T11:58:37.122Z,60.60
2022-10-19T12:03:03.696Z,60.60
2022-10-19T12:07:17.062Z,59.90
2022-10-19T12:11:06.457Z,59.30
2022-10-19T12:14:54.036Z,61.30
2022-10-19T12:18:46.539Z,62.10
2022-10-19T12:22:31.171Z,62.80
2022-10-19T12:30:23.479Z,62.70
2022-10-19T12:34:34.406Z,62.80
2022-10-19T12:38:29.781Z,62.40
2022-10-19T12:42:28.692Z,60.80
2022-10-19T12:46:16.997Z,59.20
2022-10-19T12:49:59.985Z,59.80
2022-10-19T12:53:49.328Z,60.00
2022-10-19T12:57:31.691Z,60.10
2022-10-19T13:01:27.663Z,61.50
2022-10-19T13:05:24.450Z,63.40
2022-10-19T13:09:10.836Z,64.00
2022-10-19T13:12:54.199Z,64.40
2022-10-19T13:16:36.322Z,64.80
2022-10-19T13:20:18.437Z,65.60
2022-10-19T13:24:31.281Z,65.70
2022-10-19T13:28:15.288Z,66.30
2022-10-19T13:32:36.427Z,65.90
2022-10-19T13:36:19.648Z,65.40
2022-10-19T13:40:23.561Z,65.80
2022-10-19T13:44:18.990Z,65.30
2022-10-19T13:48:22.494Z,65.70
2022-10-19T13:52:18.901Z,65.80
2022-10-19T13:56:14.258Z,65.80
2022-10-19T14:00:14.984Z,65.80
2022-10-19T14:04:31.242Z,65.90
2022-10-19T14:08:34.484Z,65.70
2022-10-19T14:12:27.041Z,65.60
2022-10-19T14:16:18.922Z,65.10
2022-10-19T14:20:01.231Z,64.90
2022-10-19T14:23:43.307Z,64.80
2022-10-19T14:27:29.021Z,65.00
2022-10-19T14:31:19.081Z,65.10
2022-10-19T14:35:06.596Z,64.80
2022-10-19T14:38:55.275Z,64.50
2022-10-19T14:42:45.213Z,64.00
2022-10-19T14:46:34.148Z,63.70
2022-10-19T14:50:16.595Z,64.00
2022-10-19T14:54:16.173Z,64.10
2022-10-19T14:57:58.618Z,64.70
2022-10-19T15:01:41.629Z,64.60
2022-10-19T15:05:29.864Z,64.80
2022-10-19T15:09:36.963Z,64.90
2022-10-19T15:13:27.864Z,65.10
2022-10-19T15:17:32.098Z,65.00
2022-10-19T15:21:18.930Z,65.50
2022-10-19T15:25:06.855Z,65.40
2022-10-19T15:28:49.679Z,65.40
2022-10-19T15:32:38.972Z,64.90
2022-10-19T15:36:23.637Z,65.10
2022-10-19T15:40:24.478Z,65.10
2022-10-19T15:44:27.546Z,65.50
2022-10-19T15:48:26.840Z,65.30
2022-10-19T15:52:20.453Z,65.50
2022-10-19T15:59:44.684Z,66.00
2022-10-19T16:03:26.883Z,66.00
2022-10-19T16:07:23.431Z,66.20
2022-10-19T16:11:05.771Z,66.50
2022-10-19T16:14:47.867Z,66.50
2022-10-19T16:19:04.179Z,66.50
2022-10-19T16:22:50.623Z,66.50
2022-10-19T16:26:37.292Z,66.60
2022-10-19T16:30:22.705Z,67.00
2022-10-19T16:34:04.934Z,67.10
2022-10-19T16:37:47.444Z,67.10
2022-10-19T16:41:31.093Z,67.50
2022-10-19T16:45:13.632Z,67.60
2022-10-19T16:48:56.228Z,67.80
2022-10-19T16:52:38.866Z,67.90
2022-10-19T16:56:21.442Z,68.30
2022-10-19T17:00:06.125Z,68.30
2022-10-19T17:03:49.455Z,68.50
2022-10-19T17:07:31.855Z,68.80
2022-10-19T17:11:23.196Z,68.90
2022-10-19T17:15:37.237Z,69.90
2022-10-19T17:19:10.437Z,69.50
2022-10-19T17:22:53.272Z,69.60
2022-10-19T17:26:42.583Z,69.60
2022-10-19T17:30:27.461Z,71.80
2022-10-19T17:34:11.054Z,70.20
2022-10-19T17:37:56.163Z,70.30
2022-10-19T17:41:38.735Z,70.90
2022-10-19T17:45:21.087Z,70.90
2022-10-19T17:49:03.840Z,72.70
2022-10-19T17:52:46.210Z,73.90
2022-10-19T17:56:29.026Z,71.70
2022-10-19T18:00:11.848Z,72.60
2022-10-19T18:03:54.367Z,72.70
2022-10-19T18:07:37.651Z,72.50
2022-10-19T18:11:22.237Z,73.80
2022-10-19T18:15:05.636Z,74.10
2022-10-19T18:18:51.904Z,74.80
2022-10-19T18:22:34.651Z,75.00
2022-10-19T18:34:15.174Z,76.20
2022-10-19T18:37:57.644Z,77.00
2022-10-19T18:41:40.989Z,77.30
2022-10-19T18:45:23.641Z,77.00
2022-10-19T18:49:08.494Z,77.70
2022-10-19T18:52:50.884Z,77.90
2022-10-19T18:56:36.885Z,77.90
2022-10-19T19:00:19.096Z,78.50
2022-10-19T19:04:08.566Z,78.20
2022-10-19T19:07:50.846Z,79.40
2022-10-19T19:11:36.891Z,78.30
2022-10-19T19:15:20.024Z,78.50
2022-10-19T19:19:02.705Z,78.50
2022-10-19T19:22:44.917Z,79.10
2022-10-19T19:26:29.991Z,79.10
2022-10-19T19:30:12.293Z,78.70
2022-10-19T19:33:54.483Z,78.90
2022-10-19T19:37:36.944Z,78.80
2022-10-19T19:41:19.773Z,79.10
2022-10-19T19:45:02.365Z,78.80
2022-10-19T19:54:13.499Z,78.70
2022-10-19T19:57:58.833Z,81.10
2022-10-19T20:01:41.548Z,78.80
2022-10-19T20:05:24.857Z,78.80
2022-10-19T20:09:08.321Z,78.90
2022-10-19T20:12:50.346Z,78.90
2022-10-19T20:16:34.532Z,78.90
2022-10-19T20:20:19.734Z,79.10
2022-10-19T20:24:02.161Z,78.90
2022-10-19T20:27:44.188Z,78.90
2022-10-19T20:31:26.243Z,78.90
2022-10-19T20:35:08.722Z,78.90
2022-10-19T20:38:53.267Z,79.00
2022-10-19T20:42:35.422Z,79.20
2022-10-19T20:46:24.298Z,79.10
2022-10-19T20:50:07.939Z,79.50
2022-10-19T20:53:51.331Z,79.30
2022-10-19T20:57:33.342Z,79.20
2022-10-19T21:01:18.292Z,79.20
2022-10-19T21:05:00.519Z,79.30
2022-10-19T21:08:43.227Z,79.70
2022-10-19T21:12:25.518Z,80.80
2022-10-19T21:16:18.857Z,79.50
2022-10-19T21:20:00.833Z,80.40
2022-10-19T21:23:44.506Z,79.80
2022-10-19T21:27:26.515Z,79.60
2022-10-19T21:31:09.915Z,79.80
2022-10-19T21:34:52.018Z,79.70
2022-10-19T21:38:34.730Z,79.90
2022-10-19T21:42:16.760Z,79.50
2022-10-19T21:46:02.224Z,80.00
2022-10-19T21:49:44.175Z,79.90
2022-10-19T21:53:26.404Z,80.50
2022-10-19T21:57:08.908Z,80.40
2022-10-19T22:00:51.009Z,81.10
2022-10-19T22:04:32.963Z,80.60
2022-10-19T22:08:15.095Z,80.60
2022-10-19T22:11:57.286Z,80.50
2022-10-19T22:15:40.621Z,80.30
2022-10-19T22:19:22.787Z,80.20
2022-10-19T22:23:06.801Z,80.50
2022-10-19T22:26:50.873Z,80.50
2022-10-19T22:30:33.026Z,80.70
2022-10-19T22:34:17.100Z,81.00
2022-10-19T22:37:59.195Z,81.00
2022-10-19T22:42:19.162Z,80.70
2022-10-19T22:46:01.518Z,82.30
2022-10-19T22:49:43.758Z,80.60
2022-10-19T22:53:25.902Z,81.40
2022-10-19T22:57:08.084Z,81.50
2022-10-19T23:01:22.867Z,81.60
2022-10-19T23:05:05.569Z,84.50
2022-10-19T23:08:48.240Z,81.60
2022-10-19T23:12:30.616Z,82.00
2022-10-19T23:16:12.831Z,81.90
2022-10-19T23:19:54.897Z,82.40
2022-10-19T23:23:37.338Z,81.80
2022-10-19T23:27:20.866Z,81.40
2022-10-19T23:31:30.067Z,81.90
2022-10-19T23:35:12.266Z,81.50
2022-10-19T23:38:56.379Z,81.50
2022-10-19T23:42:38.526Z,81.80
2022-10-19T23:46:21.458Z,81.80
2022-10-19T23:50:03.850Z,82.00
2022-10-19T23:53:47.815Z,81.80
2022-10-19T23:57:30.087Z,81.80
